createdAt,value
2023-01-15T00:01:55.612Z,2.92
2023-01-15T00:07:01.708Z,5.29
2023-01-15T00:12:07.923Z,3.47
2023-01-15T00:17:14.156Z,2.06
2023-01-15T00:22:20.418Z,1.94
2023-01-15T00:27:26.568Z,4.29
2023-01-15T00:32:32.782Z,3.21
2023-01-15T00:37:38.937Z,2.61
2023-01-15T00:42:47.109Z,2.51
2023-01-15T00:47:50.976Z,2.44
2023-01-15T00:52:57.069Z,3.25
2023-01-15T00:58:03.253Z,2.65
2023-01-15T01:03:09.476Z,3.15
2023-01-15T01:08:15.547Z,2.67
2023-01-15T01:13:21.760Z,3.71
2023-01-15T01:18:27.873Z,3.26
2023-01-15T01:23:34.087Z,3.84
2023-01-15T01:28:40.173Z,2.82
2023-01-15T01:33:46.354Z,4.62
2023-01-15T01:38:52.493Z,3.41
2023-01-15T01:43:59.707Z,3.79
2023-01-15T01:49:05.927Z,3.51
2023-01-15T01:54:12.158Z,3.14
2023-01-15T01:59:18.276Z,4.00
2023-01-15T02:04:24.646Z,2.86
2023-01-15T02:09:30.753Z,3.71
2023-01-15T02:14:37.336Z,5.49
2023-01-15T02:19:43.186Z,4.57
2023-01-15T02:24:49.383Z,4.27
2023-01-15T02:29:55.511Z,2.97
2023-01-15T02:35:01.777Z,4.66
2023-01-15T02:40:08.206Z,4.70
2023-01-15T02:45:14.571Z,6.02
2023-01-15T02:50:20.659Z,6.18
2023-01-15T02:55:27.214Z,4.55
2023-01-15T03:00:33.349Z,5.26
2023-01-15T03:05:39.987Z,5.27
2023-01-15T03:10:46.240Z,4.16
2023-01-15T03:15:52.542Z,4.83
2023-01-15T03:20:59.094Z,3.53
2023-01-15T03:26:05.077Z,4.07
2023-01-15T03:31:11.165Z,4.54
2023-01-15T03:36:18.279Z,4.80
2023-01-15T03:41:23.110Z,4.74
2023-01-15T03:46:29.369Z,6.27
2023-01-15T03:51:35.446Z,4.73
2023-01-15T03:56:41.697Z,6.24
2023-01-15T04:01:47.877Z,6.74
2023-01-15T04:06:53.876Z,4.23
2023-01-15T04:11:59.970Z,5.02
2023-01-15T04:17:06.231Z,5.17
2023-01-15T04:22:12.359Z,5.40
2023-01-15T04:27:18.623Z,5.62
2023-01-15T04:32:24.802Z,5.72
2023-01-15T04:37:31.044Z,7.60
2023-01-15T04:42:37.164Z,4.29
2023-01-15T04:47:43.478Z,4.78
2023-01-15T04:52:49.542Z,4.70
2023-01-15T04:57:55.729Z,6.19
2023-01-15T05:03:01.885Z,5.89
2023-01-15T05:08:08.092Z,5.87
2023-01-15T05:13:14.165Z,6.59
2023-01-15T05:18:20.352Z,4.99
2023-01-15T05:23:26.497Z,4.80
2023-01-15T05:28:32.686Z,6.92
2023-01-15T05:33:38.876Z,8.29
2023-01-15T05:38:45.111Z,5.57
2023-01-15T05:43:51.262Z,5.34
2023-01-15T05:48:57.467Z,5.48
2023-01-15T05:54:03.567Z,5.34
2023-01-15T05:59:09.757Z,4.52
2023-01-15T06:04:15.867Z,6.81
2023-01-15T06:09:22.030Z,8.54
2023-01-15T06:14:28.188Z,6.09
2023-01-15T06:19:34.385Z,6.68
2023-01-15T06:24:40.797Z,5.31
2023-01-15T06:29:47.322Z,6.71
2023-01-15T06:35:29.731Z,5.37
2023-01-15T06:40:36.914Z,6.58
2023-01-15T06:45:42.975Z,5.69
2023-01-15T06:50:49.229Z,4.37
2023-01-15T06:55:55.358Z,4.17
2023-01-15T07:01:01.696Z,9.48
2023-01-15T07:06:07.651Z,4.97
2023-01-15T07:11:13.834Z,6.22
2023-01-15T07:16:19.916Z,4.73
2023-01-15T07:21:26.004Z,5.31
2023-01-15T07:26:32.101Z,6.49
2023-01-15T07:31:38.453Z,5.43
2023-01-15T07:36:44.466Z,4.58
2023-01-15T07:41:51.016Z,4.89
2023-01-15T07:46:57.065Z,5.48
2023-01-15T07:52:03.260Z,5.45
2023-01-15T07:57:09.413Z,6.07
2023-01-15T08:02:15.618Z,5.14
2023-01-15T08:07:21.679Z,6.25
2023-01-15T08:12:27.857Z,4.63
2023-01-15T08:17:34.018Z,4.15
2023-01-15T08:22:40.341Z,4.96
2023-01-15T08:27:46.393Z,4.36
2023-01-15T08:32:52.658Z,4.61
2023-01-15T08:37:59.064Z,4.13
2023-01-15T08:43:05.359Z,4.92
2023-01-15T08:48:11.531Z,4.38
2023-01-15T08:53:17.803Z,3.90
2023-01-15T08:58:23.898Z,4.49
2023-01-15T09:03:30.197Z,4.99
2023-01-15T09:08:36.260Z,6.55
2023-01-15T09:13:44.248Z,4.17
2023-01-15T09:18:48.114Z,4.33
2023-01-15T09:23:55.079Z,5.07
2023-01-15T09:29:01.193Z,3.85
2023-01-15T09:34:07.330Z,4.84
2023-01-15T09:39:13.489Z,6.15
2023-01-15T09:44:19.651Z,3.59
2023-01-15T09:49:25.716Z,6.33
2023-01-15T09:54:31.915Z,4.55
2023-01-15T09:59:38.075Z,5.79
2023-01-15T10:04:44.303Z,3.64
2023-01-15T10:09:50.447Z,4.12
2023-01-15T10:14:56.661Z,4.76
2023-01-15T10:20:02.850Z,3.08
2023-01-15T10:25:09.078Z,1.95
2023-01-15T10:30:15.200Z,1.30
2023-01-15T10:35:21.359Z,0.87
2023-01-15T10:40:28.192Z,0.77
2023-01-15T10:45:34.375Z,0.98
2023-01-15T10:50:40.489Z,0.66
2023-01-15T10:55:47.077Z,2.08
2023-01-15T11:00:53.167Z,1.17
2023-01-15T11:05:59.616Z,2.19
2023-01-15T11:11:05.673Z,1.64
2023-01-15T11:16:12.093Z,2.82
2023-01-15T11:21:18.472Z,1.87
2023-01-15T11:26:24.737Z,2.84
2023-01-15T11:31:31.183Z,3.32
2023-01-15T11:36:37.366Z,1.62
2023-01-15T11:41:43.423Z,1.83
2023-01-15T11:46:50.344Z,2.59
2023-01-15T11:51:56.532Z,2.69
2023-01-15T11:57:03.070Z,3.34
2023-01-15T12:02:09.121Z,2.67
2023-01-15T12:07:15.841Z,3.86
2023-01-15T12:12:21.996Z,3.70
2023-01-15T12:17:28.179Z,3.76
2023-01-15T12:22:34.342Z,4.48
2023-01-15T12:27:40.537Z,4.61
2023-01-15T12:32:46.707Z,3.35
2023-01-15T12:37:52.976Z,2.55
2023-01-15T12:44:05.335Z,4.26
2023-01-15T12:49:11.579Z,3.60
2023-01-15T12:54:17.768Z,4.01
2023-01-15T12:59:23.991Z,4.16
2023-01-15T13:04:30.095Z,3.58
2023-01-15T13:09:36.313Z,4.46
2023-01-15T13:14:44.298Z,3.90
2023-01-15T13:19:48.955Z,3.99
2023-01-15T13:24:55.341Z,3.56
2023-01-15T13:30:00.669Z,4.05
2023-01-15T13:35:06.772Z,5.04
2023-01-15T13:40:13.095Z,3.30
2023-01-15T13:45:19.366Z,3.43
2023-01-15T13:50:25.659Z,4.00
2023-01-15T13:55:31.761Z,6.14
2023-01-15T14:00:38.030Z,4.18
2023-01-15T14:05:44.167Z,3.19
2023-01-15T14:10:50.371Z,3.44
2023-01-15T14:15:56.439Z,3.02
2023-01-15T14:21:02.656Z,4.06
2023-01-15T14:26:08.781Z,2.95
2023-01-15T14:31:15.085Z,3.20
2023-01-15T14:36:21.089Z,4.27
2023-01-15T14:41:27.552Z,4.70
2023-01-15T14:46:33.637Z,3.76
2023-01-15T14:51:39.860Z,4.57
2023-01-15T14:56:45.995Z,4.34
2023-01-15T15:01:52.350Z,2.04
2023-01-15T15:06:58.387Z,1.25
2023-01-15T15:12:04.552Z,1.55
2023-01-15T15:17:10.695Z,2.41
2023-01-15T15:22:16.905Z,1.10
2023-01-15T15:27:22.984Z,0.79
2023-01-15T15:32:29.299Z,0.88
2023-01-15T15:37:35.375Z,0.87
2023-01-15T15:42:44.368Z,0.92
2023-01-15T15:47:47.334Z,1.25
2023-01-15T15:52:53.914Z,0.88
2023-01-15T15:58:00.019Z,1.12
2023-01-15T16:03:06.310Z,1.69
2023-01-15T16:08:12.357Z,1.28
2023-01-15T16:13:20.633Z,1.51
2023-01-15T16:18:26.750Z,2.11
2023-01-15T16:23:32.912Z,1.45
2023-01-15T16:28:39.119Z,2.14
2023-01-15T16:33:45.301Z,3.11
2023-01-15T16:38:51.455Z,2.38
2023-01-15T16:43:57.645Z,2.09
2023-01-15T16:49:03.830Z,2.34
2023-01-15T16:54:10.066Z,1.79
2023-01-15T16:59:16.201Z,2.35
2023-01-15T17:04:23.549Z,2.84
2023-01-15T17:09:30.098Z,2.21
2023-01-15T17:14:36.376Z,1.62
2023-01-15T17:19:42.469Z,3.04
2023-01-15T17:24:48.696Z,2.03
2023-01-15T17:29:54.836Z,2.31
2023-01-15T17:35:01.013Z,2.54
2023-01-15T17:40:07.083Z,2.27
2023-01-15T17:45:13.790Z,2.75
2023-01-15T17:50:18.907Z,3.44
2023-01-15T17:55:25.404Z,3.76
2023-01-15T18:00:31.508Z,1.78
2023-01-15T18:05:37.716Z,2.75
2023-01-15T18:10:43.878Z,2.42
2023-01-15T18:15:50.312Z,2.31
2023-01-15T18:20:56.368Z,2.23
2023-01-15T18:26:02.624Z,2.42
2023-01-15T18:31:08.782Z,3.14
2023-01-15T18:36:18.696Z,2.47
2023-01-15T18:41:24.739Z,2.96
2023-01-15T18:46:30.955Z,3.39
2023-01-15T18:51:37.081Z,2.70
2023-01-15T18:56:43.291Z,3.06
2023-01-15T19:01:49.509Z,3.23
2023-01-15T19:06:55.994Z,2.62
2023-01-15T19:12:02.115Z,2.53
2023-01-15T19:17:08.313Z,2.38
2023-01-15T19:22:14.515Z,2.44
2023-01-15T19:27:20.704Z,3.30
2023-01-15T19:32:27.591Z,3.07
2023-01-15T19:37:33.878Z,4.14
2023-01-15T19:42:40.032Z,4.09
2023-01-15T19:47:46.297Z,3.04
2023-01-15T19:52:52.483Z,4.47
2023-01-15T19:57:58.698Z,2.72
2023-01-15T20:03:05.009Z,3.28
2023-01-15T20:08:11.228Z,3.79
2023-01-15T20:13:17.301Z,2.40
2023-01-15T20:18:23.452Z,1.86
2023-01-15T20:23:29.685Z,3.10
2023-01-15T20:28:35.987Z,1.70
2023-01-15T20:33:42.063Z,1.66
2023-01-15T20:38:48.396Z,1.87
2023-01-15T20:43:54.519Z,1.61
2023-01-15T20:49:00.748Z,1.70
2023-01-15T20:54:06.823Z,1.33
2023-01-15T20:59:13.110Z,1.57
2023-01-15T21:04:19.323Z,1.55
2023-01-15T21:09:25.478Z,1.30
2023-01-15T21:14:31.588Z,1.72
2023-01-15T21:19:37.853Z,2.21
2023-01-15T21:24:43.972Z,1.86
2023-01-15T21:29:50.289Z,1.94
2023-01-15T21:34:56.381Z,2.86
2023-01-15T21:40:02.663Z,2.28
2023-01-15T21:45:08.796Z,2.88
2023-01-15T21:50:15.294Z,3.39
2023-01-15T21:55:21.365Z,2.52
2023-01-15T22:00:27.511Z,3.61
2023-01-15T22:05:33.630Z,3.00
2023-01-15T22:10:39.926Z,2.71
2023-01-15T22:15:46.089Z,3.08
2023-01-15T22:20:52.321Z,4.03
2023-01-15T22:25:58.468Z,3.89
2023-01-15T22:31:04.765Z,3.63
2023-01-15T22:36:10.806Z,3.72
2023-01-15T22:41:17.022Z,2.94
2023-01-15T22:46:23.248Z,3.18
2023-01-15T22:51:29.387Z,2.95
2023-01-15T22:56:35.542Z,3.75
2023-01-15T23:01:41.932Z,3.93
2023-01-15T23:06:48.086Z,3.64
2023-01-15T23:11:54.245Z,2.85
2023-01-15T23:17:00.303Z,3.47
2023-01-15T23:22:06.475Z,2.84
2023-01-15T23:27:12.537Z,3.00
2023-01-15T23:32:18.734Z,2.37
2023-01-15T23:37:24.911Z,2.30
2023-01-15T23:42:31.309Z,2.00
2023-01-15T23:47:37.415Z,1.83
2023-01-15T23:52:43.824Z,2.28
2023-01-15T23:57:49.928Z,1.74
